Latest Weather Observations for Noarlunga

IDS60901

Issued at 3:51 pm CDT Sunday 29 November 2020 (issued every 10 minutes, with the page automatically refreshed every 10 minutes)

About weather observations | Map of Adelaide area stations | Latest observations for Adelaide area | Other Formats
Station Details ID: 023885 Name: NOARLUNGA Lat: -35.16 Lon: 138.51 Height: 55.0 m
Data from the previous 72 hours. | See also: Recent months at Noarlunga
Date/Time
CDT
Temp
°C
App
Temp
°C
Dew
Point
°C
Rel
Hum
%
Delta-T
°C
Wind Press
QNH
hPa
Press
MSL
hPa
Rain since
9am
mm
Dir  Spd
km/h
Gust
km/h
Spd
kts
Gust
kts
29/03:30pm 20.8 17.3 8.8 46 6.3 S 17 26 9 14 - - 0.0
29/03:00pm 21.3 17.6 9.5 47 6.3 S 19 28 10 15 - - 0.0
29/02:30pm 21.1 18.0 9.0 46 6.4 S 15 26 8 14 - - 0.0
29/02:00pm 21.9 18.9 9.4 45 6.7 S 15 28 8 15 - - 0.0
29/01:30pm 20.6 17.0 10.7 53 5.4 WSW 20 30 11 16 - - 0.0
29/01:00pm 19.6 16.3 9.5 52 5.4 SW 17 28 9 15 - - 0.0
29/12:30pm 19.5 15.7 9.7 53 5.2 WSW 20 32 11 17 - - 0.0
29/12:00pm 18.6 15.1 8.8 53 5.1 WSW 17 32 9 17 - - 0.0
29/11:30am 18.7 15.9 8.7 52 5.2 SW 13 24 7 13 - - 0.0
29/11:00am 19.1 16.7 10.1 56 4.8 SW 13 22 7 12 - - 0.0
29/10:30am 18.0 16.4 10.1 60 4.2 SW 9 17 5 9 - - 0.0
29/10:00am 17.0 15.3 9.9 63 3.7 WSW 9 19 5 10 - - 0.0
29/09:30am 16.5 14.3 10.8 69 3.1 SW 13 20 7 11 - - 0.0
29/09:00am 16.5 14.7 11.0 70 3.0 SW 11 20 6 11 - - 2.6
29/08:30am 17.3 15.0 10.4 64 3.7 S 13 20 7 11 - - 2.6
29/08:00am 15.9 13.9 10.2 69 3.0 SSW 11 22 6 12 - - 2.6
29/07:30am 14.5 12.8 9.7 73 2.5 S 9 19 5 10 - - 2.6
29/07:00am 14.7 12.6 9.9 73 2.5 S 11 20 6 11 - - 2.6
29/06:30am 14.1 12.5 10.3 78 2.0 SSW 9 19 5 10 - - 2.6
29/06:00am 14.4 12.9 10.6 78 2.0 SSW 9 19 5 10 - - 2.6
29/05:30am 14.3 13.2 10.5 78 2.0 S 7 13 4 7 - - 2.6
29/05:00am 13.9 12.3 10.3 79 1.9 S 9 17 5 9 - - 2.6
29/04:30am 13.9 11.9 10.1 78 2.0 SSW 11 17 6 9 - - 2.6
29/04:00am 14.4 11.4 10.6 78 2.0 SSW 17 28 9 15 - - 2.6
29/03:30am 15.0 11.0 10.6 75 2.3 SW 22 37 12 20 - - 2.6
29/03:00am 15.2 11.3 12.0 81 1.7 SW 24 43 13 23 - - 2.6
29/02:30am 15.4 11.8 12.0 80 1.9 SW 22 44 12 24 - - 2.6
29/02:00am 15.6 11.7 12.2 80 1.9 SW 24 41 13 22 - - 2.6
29/01:30am 15.6 11.4 12.4 81 1.8 SW 26 39 14 21 - - 2.6
29/01:00am 15.7 11.7 13.0 84 1.5 SW 26 43 14 23 - - 2.6
29/12:30am 15.9 13.5 13.9 88 1.1 SW 19 35 10 19 - - 2.6
29/12:00am 15.9 11.4 13.9 88 1.1 SW 30 50 16 27 - - 2.6
 
Date/Time
CDT
Temp
°C
App
Temp
°C
Dew
Point
°C
Rel
Hum
%
Delta-T
°C
Wind Press
QNH
hPa
Press
MSL
hPa
Rain since
9am
mm
Dir  Spd
km/h
Gust
km/h
Spd
kts
Gust
kts
28/11:41pm 16.3 12.5 14.8 91 0.9 WSW 28 54 15 29 - - 2.6
28/11:30pm 16.6 13.9 15.6 94 0.6 WSW 24 43 13 23 - - 2.6
28/11:00pm 16.2 14.4 15.4 95 0.5 WSW 19 35 10 19 - - 2.6
28/10:45pm 16.0 12.3 15.0 94 0.6 WSW 28 50 15 27 - - 2.4
28/10:30pm 16.2 13.0 15.2 94 0.6 W 26 43 14 23 - - 2.0
28/10:00pm 17.2 14.7 16.1 93 0.7 WSW 24 39 13 21 - - 1.0
28/09:31pm 17.6 14.4 16.3 92 0.8 WSW 28 46 15 25 - - 1.0
28/09:30pm 17.5 14.6 16.2 92 0.8 WSW 26 46 14 25 - - 1.0
28/09:00pm 17.8 16.5 17.3 97 0.3 WSW 20 32 11 17 - - 1.0
28/08:30pm 17.7 17.3 17.1 96 0.4 W 15 30 8 16 - - 1.0
28/08:00pm 19.2 20.5 16.2 83 1.8 SW 4 9 2 5 - - 0.2
28/07:30pm 20.6 19.6 13.3 63 4.2 SW 11 20 6 11 - - 0.0
28/07:00pm 22.1 19.6 12.4 54 5.5 SW 17 28 9 15 - - 0.0
28/06:30pm 22.7 20.0 11.7 49 6.2 SW 17 26 9 14 - - 0.0
28/06:00pm 24.1 23.1 14.5 55 5.7 SSW 13 19 7 10 - - 0.0
28/05:30pm 23.2 23.7 15.5 62 4.6 SSW 7 13 4 7 - - 0.0
28/05:00pm 22.1 21.0 15.2 65 4.1 ESE 15 20 8 11 - - 0.0
28/04:30pm 22.1 21.6 15.0 64 4.2 SW 11 22 6 12 - - 0.0
28/04:00pm 23.9 22.9 14.6 56 5.5 SW 13 24 7 13 - - 0.0
28/03:30pm 26.1 24.6 13.2 44 7.6 SW 13 19 7 10 - - 0.0
28/03:00pm 28.9 26.6 10.6 32 10.4 SSE 13 19 7 10 - - 0.0
28/02:30pm 30.2 28.2 10.2 29 11.4 SSE 11 19 6 10 - - 0.0
28/02:00pm 30.4 26.8 10.4 29 11.4 SE 20 33 11 18 - - 0.0
28/01:30pm 30.0 25.6 10.5 30 11.1 SE 24 32 13 17 - - 0.0
28/01:00pm 28.9 25.4 10.1 31 10.6 SSE 19 24 10 13 - - 0.0
28/12:30pm 29.4 26.6 11.5 33 10.4 SSE 17 28 9 15 - - 0.0
28/12:00pm 30.0 27.1 11.0 31 10.9 SSE 17 26 9 14 - - 0.0
28/11:30am 30.2 27.2 12.6 34 10.4 SSE 20 32 11 17 - - 0.0
28/11:00am 29.0 24.3 12.0 35 9.9 SE 28 43 15 23 - - 0.0
28/10:30am 27.6 22.3 12.4 39 8.9 SE 32 46 17 25 - - 0.0
28/10:00am 27.0 23.3 12.6 41 8.4 SE 24 37 13 20 - - 0.0
28/09:30am 27.9 25.5 12.7 39 8.9 SE 17 24 9 13 - - 0.0
28/09:00am 27.2 25.5 13.5 42 8.1 ESE 15 22 8 12 - - 0.0
28/08:30am 24.6 25.3 13.5 50 6.5 WSW 2 6 1 3 - - 0.0
28/08:00am 24.3 23.8 12.6 48 6.7 S 7 11 4 6 - - 0.0
28/07:30am 22.8 24.1 15.1 62 4.6 WSW 2 13 1 7 - - 0.0
28/07:00am 23.5 23.5 12.5 50 6.3 NNE 4 9 2 5 - - 0.0
28/06:30am 23.9 23.1 11.6 46 6.9 NE 7 9 4 5 - - 0.0
28/06:00am 22.9 23.7 12.5 52 5.9 CALM 0 4 0 2 - - 0.0
28/05:30am 23.1 22.4 12.1 50 6.2 NW 7 9 4 5 - - 0.0
28/05:00am 24.0 23.3 9.9 41 7.7 WNW 4 7 2 4 - - 0.0
28/04:30am 26.9 25.9 7.4 29 10.4 NE 2 4 1 2 - - 0.0
28/04:00am 27.2 23.4 7.6 29 10.5 ENE 17 26 9 14 - - 0.0
28/03:30am 24.7 21.2 10.2 40 8.0 E 19 26 10 14 - - 0.0
28/03:00am 23.1 19.9 11.2 47 6.6 ESE 19 24 10 13 - - 0.0
28/02:30am 23.6 22.3 9.9 42 7.5 E 7 11 4 6 - - 0.0
28/02:00am 24.0 22.3 9.9 41 7.7 E 9 15 5 8 - - 0.0
28/01:30am 23.0 21.1 10.4 45 6.9 ESE 11 13 6 7 - - 0.0
28/01:00am 24.0 22.3 9.9 41 7.7 E 9 17 5 9 - - 0.0
28/12:30am 23.2 19.7 10.3 44 7.1 E 19 28 10 15 - - 0.0
28/12:00am 23.3 19.7 9.7 42 7.4 ESE 19 26 10 14 - - 0.0
 
Date/Time
CDT
Temp
°C
App
Temp
°C
Dew
Point
°C
Rel
Hum
%
Delta-T
°C
Wind Press
QNH
hPa
Press
MSL
hPa
Rain since
9am
mm
Dir  Spd
km/h
Gust
km/h
Spd
kts
Gust
kts
27/11:30pm 25.7 22.6 10.3 38 8.6 ESE 17 24 9 13 - - 0.0
27/11:00pm 27.5 25.6 7.4 28 10.8 ESE 7 11 4 6 - - 0.0
27/10:30pm 27.6 25.9 8.5 30 10.4 ESE 7 7 4 4 - - 0.0
27/10:00pm 27.9 26.3 8.7 30 10.5 E 7 11 4 6 - - 0.0
27/09:30pm 28.9 27.0 6.9 25 11.8 ESE 6 7 3 4 - - 0.0
27/09:00pm 29.6 27.5 5.6 22 12.6 SE 6 7 3 4 - - 0.0
27/08:30pm 31.3 29.6 4.2 18 14.0 S 2 4 1 2 - - 0.0
27/08:00pm 32.9 30.9 4.6 17 14.9 SSW 4 9 2 5 - - 0.0
27/07:30pm 34.1 31.2 4.7 16 15.6 SSW 9 17 5 9 - - 0.0
27/07:00pm 34.3 32.0 7.4 19 14.9 SSW 9 15 5 8 - - 0.0
27/06:30pm 35.3 32.2 7.4 18 15.6 SSW 13 19 7 10 - - 0.0
27/06:00pm 36.3 33.0 6.5 16 16.5 SW 13 19 7 10 - - 0.0
27/05:30pm 36.9 34.1 7.0 16 16.7 SW 11 19 6 10 - - 0.0
27/05:00pm 36.3 33.4 8.2 18 15.9 SW 13 20 7 11 - - 0.0
27/04:30pm 36.1 34.3 9.6 20 15.3 SSW 9 15 5 8 - - 0.0
27/04:00pm 36.2 34.1 9.7 20 15.4 SW 11 17 6 9 - - 0.0
27/03:30pm 35.4 33.5 10.4 22 14.6 SW 11 17 6 9 - - 0.0
27/03:00pm 35.6 34.9 11.3 23 14.4 SSW 6 11 3 6 - - 0.0
27/02:30pm 33.7 31.7 10.3 24 13.5 SW 11 17 6 9 - - 0.0
27/02:00pm 34.8 34.3 11.9 25 13.6 WSW 6 15 3 8 - - 0.0
27/01:30pm 32.4 31.3 13.1 31 11.6 WSW 11 15 6 8 - - 0.0
27/01:00pm 33.4 30.4 12.4 28 12.5 WNW 20 37 11 20 - - 0.0
27/12:30pm 38.1 32.1 7.0 15 17.5 NNW 28 39 15 21 - - 0.0
27/12:00pm 37.2 31.2 7.2 16 16.8 NNW 28 41 15 22 - - 0.0
27/11:30am 35.8 31.5 7.0 17 16.0 N 19 32 10 17 - - 0.0
27/11:00am 34.7 30.5 8.4 20 14.8 NNW 20 30 11 16 - - 0.0
27/10:30am 34.2 30.9 9.4 22 14.2 NNW 17 24 9 13 - - 0.0
27/10:00am 32.0 30.8 11.7 28 11.9 NW 9 15 5 8 - - 0.0
27/09:30am 28.6 28.2 12.5 37 9.4 WSW 6 7 3 4 - - 0.0
27/09:00am 27.2 27.4 12.0 38 8.8 S 2 6 1 3 - - 0.0
27/08:30am 25.5 26.1 12.0 43 7.7 CALM 0 0 0 0 - - 0.0
27/08:00am 24.0 24.8 12.6 49 6.6 CALM 0 0 0 0 - - 0.0
27/07:30am 23.2 23.6 11.3 47 6.7 CALM 0 0 0 0 - - 0.0
27/07:00am 21.9 22.0 11.6 52 5.8 SE 2 4 1 2 - - 0.0
27/06:30am 20.1 20.3 11.8 59 4.6 ENE 2 4 1 2 - - 0.0
27/06:00am 18.6 17.9 11.4 63 3.9 SSE 6 7 3 4 - - 0.0
27/05:30am 18.4 18.4 11.2 63 3.9 ENE 2 7 1 4 - - 0.0
27/05:00am 19.0 19.5 11.6 62 4.1 CALM 0 0 0 0 - - 0.0
27/04:30am 19.6 19.3 11.6 60 4.4 NE 4 6 2 3 - - 0.0
27/04:00am 19.3 19.5 11.8 62 4.2 ESE 2 6 1 3 - - 0.0
27/03:30am 19.8 19.2 11.6 59 4.5 ESE 6 7 3 4 - - 0.0
27/03:00am 20.4 21.1 12.1 59 4.6 CALM 0 0 0 0 - - 0.0
27/02:30am 20.8 20.3 12.2 58 4.8 NE 6 7 3 4 - - 0.0
27/02:00am 22.0 21.2 11.7 52 5.8 NE 7 9 4 5 - - 0.0
27/01:30am 22.3 22.4 11.4 50 6.1 ENE 2 6 1 3 - - 0.0
27/01:00am 21.3 20.7 11.6 54 5.4 E 6 9 3 5 - - 0.0
27/12:30am 20.9 19.8 11.8 56 5.1 ESE 9 13 5 7 - - 0.0
27/12:00am 21.1 20.6 12.0 56 5.1 ESE 6 7 3 4 - - 0.0
 
Date/Time
CDT
Temp
°C
App
Temp
°C
Dew
Point
°C
Rel
Hum
%
Delta-T
°C
Wind Press
QNH
hPa
Press
MSL
hPa
Rain since
9am
mm
Dir  Spd
km/h
Gust
km/h
Spd
kts
Gust
kts
26/11:30pm 21.8 20.9 11.5 52 5.7 E 7 11 4 6 - - 0.0
26/11:00pm 21.5 20.4 11.8 54 5.4 ENE 9 15 5 8 - - 0.0
26/10:30pm 21.8 19.9 11.8 53 5.6 ENE 13 20 7 11 - - 0.0
26/10:00pm 20.5 17.6 12.2 59 4.7 ENE 19 24 10 13 - - 0.0
26/09:30pm 19.7 16.8 12.2 62 4.2 ESE 19 24 10 13 - - 0.0
26/09:00pm 19.4 16.5 12.4 64 3.9 ESE 19 26 10 14 - - 0.0
26/08:30pm 19.6 15.8 12.4 63 4.0 ESE 24 33 13 18 - - 0.0
26/08:00pm 20.4 16.5 12.1 59 4.6 ESE 24 35 13 19 - - 0.0
26/07:30pm 21.9 18.9 12.5 55 5.3 ESE 20 28 11 15 - - 0.0
26/07:00pm 23.5 19.6 12.2 49 6.4 ESE 24 35 13 19 - - 0.0
26/06:30pm 24.5 21.1 12.5 47 6.9 ESE 22 33 12 18 - - 0.0
26/06:00pm 25.2 22.2 12.4 45 7.4 ESE 20 30 11 16 - - 0.0
26/05:30pm 25.4 22.0 12.6 45 7.4 SE 22 33 12 18 - - 0.0
26/05:00pm 25.6 21.9 12.8 45 7.4 SE 24 35 13 19 - - 0.0
26/04:30pm 25.9 21.8 12.7 44 7.7 SE 26 39 14 21 - - 0.0
26/04:00pm 25.8 21.6 12.3 43 7.8 SE 26 37 14 20 - - 0.0

Latest Capital City Observations: Canberra | Sydney | Melbourne | Brisbane | Adelaide | Perth | Hobart | Darwin

Other formats

Comma delimited format used in spreadsheet applications
http://www.bom.gov.au/fwo/IDS60901/IDS60901.94808.axf

JavaScript Object Notation format (JSON) in row-major order
http://www.bom.gov.au/fwo/IDS60901/IDS60901.94808.json

Data quality

Most of these data are generated automatically and are frequently updated. Quality checks on data are not normally performed. It is possible for incorrect values to appear. Refer to information at About Latest Weather Observations and please check the disclaimer before using these data.